Time;durP1;ratioP1;P1;durP2;ratioP2;P2;SDS_P1;SDS_P2;PMS_P1;PMS_P2;Temp;Humidity;BMP_temperature;BMP_pressure;BME280_temperature;BME280_humidity;BME280_pressure;Samples;Min_cycle;Max_cycle;Signal;HPM_P1;HPM_P2
2021/05/08 00:00:44;;;;;;;2.90;0.52;;;;;;;18.27;43.61;101291.28;5033109;28;20505;-65
2021/05/08 00:03:11;;;;;;;2.00;0.30;;;;;;;18.24;43.45;101286.25;5033196;28;20512;-65
2021/05/08 00:05:37;;;;;;;2.80;0.30;;;;;;;18.20;43.34;101282.97;5033222;28;20103;-65
2021/05/08 00:08:03;;;;;;;1.02;0.30;;;;;;;18.19;42.99;101307.03;5033092;28;20057;-64
2021/05/08 00:10:30;;;;;;;0.77;0.20;;;;;;;18.17;43.41;101320.44;5032947;28;20053;-64
2021/05/08 00:12:56;;;;;;;1.55;0.55;;;;;;;18.15;42.88;101316.22;5033068;28;20504;-65
2021/05/08 00:15:24;;;;;;;2.22;0.30;;;;;;;18.13;43.32;101323.44;5032991;28;20136;-68
2021/05/08 00:17:51;;;;;;;1.33;0.47;;;;;;;18.10;42.94;101328.03;5032714;28;20045;-65
2021/05/08 00:20:17;;;;;;;1.35;0.20;;;;;;;18.08;43.27;101329.09;5032856;28;20045;-65
2021/05/08 00:22:44;;;;;;;1.02;0.20;;;;;;;18.06;43.09;101326.59;5032888;28;20050;-68
2021/05/08 00:25:11;;;;;;;1.90;0.30;;;;;;;18.06;43.35;101325.75;5032535;28;20041;-64
2021/05/08 00:27:37;;;;;;;1.00;0.10;;;;;;;18.04;43.04;101325.00;5032831;28;20100;-64
2021/05/08 00:30:05;;;;;;;0.93;0.25;;;;;;;18.02;43.21;101321.66;5032578;28;20049;-64
2021/05/08 00:32:31;;;;;;;3.95;0.30;;;;;;;17.98;43.46;101326.34;5032704;28;20045;-64
2021/05/08 00:34:57;;;;;;;0.88;0.40;;;;;;;17.94;43.27;101323.09;5032706;28;20045;-64
2021/05/08 00:37:24;;;;;;;4.32;0.50;;;;;;;17.91;43.53;101325.94;5032627;28;20072;-64
2021/05/08 00:39:50;;;;;;;0.52;0.20;;;;;;;17.90;43.44;101329.59;5032673;28;20045;-64
2021/05/08 00:42:21;;;;;;;0.30;0.20;;;;;;;17.87;43.77;101318.34;5032482;28;20057;-64
2021/05/08 00:44:58;;;;;;;1.40;0.30;;;;;;;17.87;43.59;101331.63;5032483;28;20430;-64
2021/05/08 00:47:41;;;;;;;0.75;0.20;;;;;;;17.84;43.75;101334.50;5032444;28;20056;-67
2021/05/08 00:50:26;;;;;;;1.40;0.30;;;;;;;17.84;43.53;101326.53;5032068;28;20128;-64
2021/05/08 00:52:59;;;;;;;0.90;0.30;;;;;;;17.79;43.39;101332.22;5032446;28;20674;-68
2021/05/08 00:55:38;;;;;;;1.10;0.20;;;;;;;17.77;43.55;101334.16;5032453;28;20288;-65
2021/05/08 00:58:08;;;;;;;0.77;0.50;;;;;;;17.73;43.47;101338.84;5032196;28;20123;-64
2021/05/08 01:00:35;;;;;;;0.70;0.20;;;;;;;17.73;43.46;101351.28;5032521;28;20049;-64
2021/05/08 01:03:01;;;;;;;0.32;0.20;;;;;;;17.68;43.42;101346.31;5032228;28;20045;-64
2021/05/08 01:05:32;;;;;;;1.38;0.30;;;;;;;17.68;43.27;101346.31;5032235;28;20057;-64
2021/05/08 01:08:01;;;;;;;0.70;0.10;;;;;;;17.65;43.08;101357.19;5035558;28;20413;-64
2021/05/08 01:10:29;;;;;;;1.92;0.30;;;;;;;17.61;43.31;101351.28;5036379;28;20058;-64
2021/05/08 01:12:57;;;;;;;0.57;0.20;;;;;;;17.59;43.21;101358.50;5036588;28;20057;-64
2021/05/08 01:15:24;;;;;;;0.40;0.17;;;;;;;17.58;42.93;101358.63;5035855;28;20395;-64
2021/05/08 01:17:51;;;;;;;1.80;0.20;;;;;;;17.56;42.97;101361.41;5036124;28;20060;-64
2021/05/08 01:20:19;;;;;;;3.05;0.17;;;;;;;17.56;43.26;101363.19;5035997;28;20049;-64
2021/05/08 01:22:49;;;;;;;1.80;0.22;;;;;;;17.56;42.94;101363.19;5036327;28;20494;-64
2021/05/08 01:25:21;;;;;;;1.95;0.20;;;;;;;17.53;43.21;101366.09;5036180;28;20046;-64
2021/05/08 01:27:53;;;;;;;2.58;0.22;;;;;;;17.51;42.92;101360.91;5036173;28;20041;-64
2021/05/08 01:30:22;;;;;;;0.60;0.30;;;;;;;17.48;43.12;101366.44;5036046;28;20060;-67
2021/05/08 01:32:50;;;;;;;1.90;0.20;;;;;;;17.45;43.09;101375.47;5036194;28;20052;-64
2021/05/08 01:35:16;;;;;;;2.28;0.20;;;;;;;17.43;43.34;101366.78;5035859;28;20049;-64
2021/05/08 01:37:43;;;;;;;2.67;0.28;;;;;;;17.40;43.24;101374.97;5036008;28;20045;-68
2021/05/08 01:40:12;;;;;;;1.30;0.20;;;;;;;17.39;43.22;101383.88;5035941;28;20053;-65
2021/05/08 01:42:41;;;;;;;3.28;0.30;;;;;;;17.39;42.93;101394.50;5035920;28;20050;-64
2021/05/08 01:45:18;;;;;;;1.20;0.52;;;;;;;17.37;43.07;101395.56;5035721;28;20049;-66
2021/05/08 01:47:44;;;;;;;0.32;0.20;;;;;;;17.34;42.88;101399.31;5035608;28;20050;-66
2021/05/08 01:50:13;;;;;;;1.48;0.20;;;;;;;17.31;43.04;101396.91;5035648;28;20050;-64
2021/05/08 01:52:40;;;;;;;1.75;0.20;;;;;;;17.29;43.03;101402.31;5035710;28;20052;-64
2021/05/08 01:55:10;;;;;;;1.38;0.40;;;;;;;17.27;43.16;101411.34;5035419;28;20049;-65
2021/05/08 01:57:45;;;;;;;1.02;0.15;;;;;;;17.23;43.09;101413.38;5035541;28;20058;-64
2021/05/08 02:00:22;;;;;;;0.40;0.20;;;;;;;17.22;43.13;101429.41;5035389;28;20057;-67
2021/05/08 02:02:49;;;;;;;0.30;0.10;;;;;;;17.19;43.45;101427.84;5035607;28;20383;-64
2021/05/08 02:05:16;;;;;;;0.25;0.15;;;;;;;17.17;43.47;101421.78;5043763;28;20045;-64
2021/05/08 02:07:42;;;;;;;1.92;0.32;;;;;;;17.15;43.65;101426.34;5055358;28;20049;-64
2021/05/08 02:10:11;;;;;;;1.15;0.20;;;;;;;17.12;43.33;101435.38;5055158;28;20060;-64
2021/05/08 02:12:38;;;;;;;1.17;0.20;;;;;;;17.10;43.42;101437.31;5055317;28;20056;-64
2021/05/08 02:15:08;;;;;;;1.40;0.20;;;;;;;17.09;43.70;101438.28;5055322;28;20045;-64
2021/05/08 02:17:35;;;;;;;0.30;0.20;;;;;;;17.08;43.29;101449.84;5054738;28;20049;-64
2021/05/08 02:20:07;;;;;;;0.50;0.30;;;;;;;17.05;43.36;101436.81;5055020;28;20052;-64
2021/05/08 02:22:34;;;;;;;0.70;0.30;;;;;;;17.05;43.21;101443.91;5047235;28;20054;-64
2021/05/08 02:25:01;;;;;;;0.85;0.13;;;;;;;17.05;43.24;101436.81;5035010;28;20107;-65
2021/05/08 02:27:27;;;;;;;1.27;0.52;;;;;;;17.05;43.53;101452.72;5035115;28;20061;-65
2021/05/08 02:29:53;;;;;;;0.65;0.20;;;;;;;17.05;43.31;101457.16;5034992;28;20544;-64
2021/05/08 02:32:20;;;;;;;0.68;0.20;;;;;;;17.05;43.17;101457.16;5034883;28;20489;-65
2021/05/08 02:34:47;;;;;;;1.23;0.30;;;;;;;17.04;43.30;101461.63;5035048;28;20048;-64
2021/05/08 02:37:13;;;;;;;1.02;0.38;;;;;;;17.04;42.92;101463.41;5034959;28;20494;-64
2021/05/08 02:39:39;;;;;;;0.50;0.20;;;;;;;17.00;42.72;101462.81;5034717;28;20049;-64
2021/05/08 02:42:06;;;;;;;0.52;0.17;;;;;;;16.97;42.88;101465.69;5034502;28;20053;-64
2021/05/08 02:44:32;;;;;;;0.43;0.10;;;;;;;16.98;43.16;101467.38;5034743;28;20111;-64
2021/05/08 02:46:58;;;;;;;0.80;0.20;;;;;;;16.96;42.86;101466.63;5034631;28;20048;-65
2021/05/08 02:49:24;;;;;;;0.93;0.20;;;;;;;16.94;42.65;101477.34;5034472;28;20045;-64
2021/05/08 02:51:50;;;;;;;0.60;0.10;;;;;;;16.93;42.77;101491.56;5034727;28;20045;-64
2021/05/08 02:54:17;;;;;;;0.50;0.10;;;;;;;16.90;42.70;101481.16;5034348;28;20498;-64
2021/05/08 02:56:43;;;;;;;1.73;0.30;;;;;;;16.89;42.65;101494.53;5034421;28;20049;-65
2021/05/08 02:59:09;;;;;;;0.38;0.20;;;;;;;16.87;42.39;101485.81;5034335;28;20445;-64
2021/05/08 03:01:35;;;;;;;3.40;0.20;;;;;;;16.84;42.48;101486.88;5033492;28;20049;-65
2021/05/08 03:04:02;;;;;;;0.22;0.20;;;;;;;16.81;42.11;101487.97;5047463;28;20061;-64
2021/05/08 03:06:28;;;;;;;0.30;0.20;;;;;;;16.78;42.25;101474.06;5050962;28;20075;-64
2021/05/08 03:08:54;;;;;;;0.08;0.03;;;;;;;16.77;42.20;101480.31;5050870;28;20501;-64
2021/05/08 03:11:20;;;;;;;1.42;0.20;;;;;;;16.76;42.39;101483.91;5045855;28;20560;-64
2021/05/08 03:13:46;;;;;;;0.63;0.20;;;;;;;16.74;42.19;101492.00;5030888;28;20084;-64
2021/05/08 03:16:12;;;;;;;0.20;0.10;;;;;;;16.75;42.26;101495.50;5030756;28;20045;-64
2021/05/08 03:18:39;;;;;;;0.25;0.25;;;;;;;16.73;42.34;101506.19;5030410;28;20132;-65
2021/05/08 03:21:05;;;;;;;0.20;0.10;;;;;;;16.71;41.99;101504.59;5030527;28;20053;-65
2021/05/08 03:23:31;;;;;;;0.40;0.10;;;;;;;16.70;42.24;101505.59;5030901;28;20045;-68
2021/05/08 03:25:58;;;;;;;0.40;0.20;;;;;;;16.67;41.99;101513.72;5030867;28;20045;-63
2021/05/08 03:28:24;;;;;;;0.90;0.20;;;;;;;16.68;42.14;101518.09;5030533;28;20057;-64
2021/05/08 03:30:50;;;;;;;1.58;0.10;;;;;;;16.65;42.20;101522.63;5029828;28;20080;-64
2021/05/08 03:33:16;;;;;;;0.60;0.20;;;;;;;16.65;42.04;101527.09;5030380;28;20053;-64
2021/05/08 03:35:42;;;;;;;0.22;0.13;;;;;;;16.65;42.29;101527.94;5030557;28;20049;-64
2021/05/08 03:38:08;;;;;;;0.35;0.20;;;;;;;16.64;42.07;101544.78;5030340;28;20045;-64
2021/05/08 03:40:34;;;;;;;0.63;0.15;;;;;;;16.64;42.16;101552.72;5030070;28;20045;-64
2021/05/08 03:43:00;;;;;;;0.50;0.50;;;;;;;16.64;41.87;101555.38;5030165;28;20045;-64
2021/05/08 03:45:27;;;;;;;0.38;0.10;;;;;;;16.64;42.00;101560.69;5030315;28;20486;-64
2021/05/08 03:47:53;;;;;;;0.50;0.20;;;;;;;16.63;41.88;101558.16;5030089;28;20123;-64
2021/05/08 03:50:19;;;;;;;0.40;0.17;;;;;;;16.62;42.13;101559.97;5029977;28;20200;-64
2021/05/08 03:52:45;;;;;;;0.05;0.03;;;;;;;16.62;41.97;101564.41;5030153;28;20073;-64
2021/05/08 03:55:12;;;;;;;1.05;0.20;;;;;;;16.62;42.02;101559.09;5030137;28;20049;-64
2021/05/08 03:57:38;;;;;;;0.43;0.10;;;;;;;16.61;42.04;101562.72;5030057;28;20050;-64
2021/05/08 04:00:06;;;;;;;1.08;0.25;;;;;;;16.60;42.07;101564.50;5030106;28;20046;-64
2021/05/08 04:02:33;;;;;;;1.50;0.13;;;;;;;16.60;42.22;101559.22;5029778;28;20107;-64
2021/05/08 04:04:59;;;;;;;0.52;0.20;;;;;;;16.61;42.18;101566.22;5029893;28;20053;-64
2021/05/08 04:07:25;;;;;;;0.28;0.20;;;;;;;16.60;42.25;101567.16;5030079;28;20079;-64
2021/05/08 04:09:52;;;;;;;2.03;0.20;;;;;;;16.60;42.16;101571.63;5029886;28;20460;-64
2021/05/08 04:12:18;;;;;;;0.35;0.20;;;;;;;16.61;42.16;101568.03;5029669;28;20057;-68
2021/05/08 04:14:44;;;;;;;0.47;0.17;;;;;;;16.61;42.47;101575.97;5029743;28;20111;-64
2021/05/08 04:17:14;;;;;;;1.48;0.20;;;;;;;16.62;42.42;101580.28;5029258;28;20077;-63
2021/05/08 04:19:40;;;;;;;0.57;0.30;;;;;;;16.62;42.26;101582.94;5029828;28;20054;-65
2021/05/08 04:22:06;;;;;;;0.50;0.10;;;;;;;16.62;42.34;101580.28;5029386;28;20057;-64
2021/05/08 04:24:32;;;;;;;0.68;0.20;;;;;;;16.63;42.58;101588.16;5029515;28;20041;-64
2021/05/08 04:26:58;;;;;;;0.60;0.20;;;;;;;16.63;42.52;101593.47;5029279;28;20052;-64
2021/05/08 04:29:25;;;;;;;0.40;0.10;;;;;;;16.64;42.61;101599.59;5029801;28;20050;-65
2021/05/08 04:31:52;;;;;;;0.20;0.20;;;;;;;16.65;42.72;101601.31;5029486;28;20099;-64
2021/05/08 04:34:19;;;;;;;0.30;0.28;;;;;;;16.67;42.60;101601.19;5029311;28;20049;-64
2021/05/08 04:36:46;;;;;;;1.90;0.30;;;;;;;16.68;42.77;101594.94;5029360;28;20095;-64
2021/05/08 04:39:13;;;;;;;1.55;0.30;;;;;;;16.69;42.57;101604.59;5029212;28;20045;-64
2021/05/08 04:41:40;;;;;;;0.20;0.10;;;;;;;16.68;42.55;101603.72;5029205;28;20049;-64
2021/05/08 04:44:07;;;;;;;1.80;0.20;;;;;;;16.71;42.36;101607.97;5029218;28;20717;-64
2021/05/08 04:46:33;;;;;;;0.17;0.10;;;;;;;16.73;42.35;101603.41;5029256;28;20045;-64
2021/05/08 04:48:59;;;;;;;0.20;0.10;;;;;;;16.70;42.25;101608.94;5029277;28;20053;-65
2021/05/08 04:51:26;;;;;;;1.45;0.30;;;;;;;16.72;42.27;101607.03;5029528;28;20056;-67
2021/05/08 04:53:53;;;;;;;1.58;0.20;;;;;;;16.73;42.17;101614.03;5029496;28;20107;-67
2021/05/08 04:56:19;;;;;;;1.13;0.30;;;;;;;16.73;42.31;101609.56;5028905;28;20049;-64
2021/05/08 04:58:45;;;;;;;0.40;0.30;;;;;;;16.74;42.15;101619.22;5029141;28;20555;-64
2021/05/08 05:01:11;;;;;;;0.68;0.10;;;;;;;16.75;42.09;101626.22;5028951;28;20053;-64
2021/05/08 05:03:37;;;;;;;1.05;0.20;;;;;;;16.76;41.84;101614.66;5029174;28;20091;-64
2021/05/08 05:06:04;;;;;;;1.00;0.30;;;;;;;16.78;41.81;101617.19;5029007;28;20092;-66
2021/05/08 05:08:30;;;;;;;0.20;0.20;;;;;;;16.76;41.79;101619.97;5028762;28;20540;-64
2021/05/08 05:10:57;;;;;;;0.60;0.30;;;;;;;16.77;41.62;101616.38;5028983;28;20054;-64
2021/05/08 05:13:24;;;;;;;0.15;0.10;;;;;;;16.78;41.11;101628.63;5029121;28;20053;-64
2021/05/08 05:15:51;;;;;;;0.38;0.25;;;;;;;16.80;41.15;101633.84;5029041;28;20042;-64
2021/05/08 05:18:18;;;;;;;1.45;0.52;;;;;;;16.83;41.10;101636.28;5028781;28;20482;-64
2021/05/08 05:20:51;;;;;;;0.35;0.20;;;;;;;16.86;40.70;101645.81;5028883;28;20042;-65
2021/05/08 05:23:20;;;;;;;0.63;0.20;;;;;;;16.89;40.71;101642.97;5028245;28;20055;-64
2021/05/08 05:25:46;;;;;;;5.35;1.70;;;;;;;16.92;40.34;101640.97;5028878;28;20042;-64
2021/05/08 05:28:21;;;;;;;0.40;0.20;;;;;;;16.94;40.49;101646.19;5028598;28;20041;-65
2021/05/08 05:30:47;;;;;;;0.22;0.20;;;;;;;16.97;40.31;101644.16;5028871;28;20045;-64
2021/05/08 05:33:13;;;;;;;1.67;0.30;;;;;;;17.00;39.81;101664.34;5030724;28;20073;-64
2021/05/08 05:35:40;;;;;;;3.00;0.30;;;;;;;17.01;39.79;101652.75;5040295;28;20052;-63
2021/05/08 05:38:06;;;;;;;0.13;0.10;;;;;;;17.03;39.85;101658.81;5048609;28;20390;-65
2021/05/08 05:40:34;;;;;;;1.83;0.25;;;;;;;17.04;39.57;101652.56;5048454;28;20045;-65
2021/05/08 05:43:00;;;;;;;0.50;0.30;;;;;;;17.07;39.61;101662.94;5029091;28;20092;-64
2021/05/08 05:45:27;;;;;;;1.20;0.20;;;;;;;17.08;39.16;101666.44;5028756;28;20103;-64
2021/05/08 05:47:58;;;;;;;2.15;0.85;;;;;;;17.09;38.95;101671.66;5028785;28;20413;-66
2021/05/08 05:50:25;;;;;;;0.10;0.10;;;;;;;17.11;38.69;101674.19;5028595;28;20041;-63
2021/05/08 05:52:55;;;;;;;0.50;0.38;;;;;;;17.15;38.99;101675.66;5029871;28;20053;-66
2021/05/08 05:55:23;;;;;;;0.30;0.20;;;;;;;17.14;38.46;101666.00;5032136;28;20053;-66
2021/05/08 05:57:50;;;;;;;0.75;0.40;;;;;;;17.16;38.23;101677.34;5047156;28;20079;-66
2021/05/08 06:00:18;;;;;;;0.70;0.30;;;;;;;17.20;38.36;101683.31;5052034;28;20056;-66
2021/05/08 06:02:44;;;;;;;0.38;0.30;;;;;;;17.22;38.05;101682.25;5038003;28;20049;-65
2021/05/08 06:05:11;;;;;;;1.10;0.30;;;;;;;17.25;37.48;101695.28;5031893;28;20100;-64
2021/05/08 06:07:38;;;;;;;0.30;0.20;;;;;;;17.28;37.59;101700.38;5032199;28;20053;-66
2021/05/08 06:10:07;;;;;;;0.40;0.20;;;;;;;17.29;37.34;101694.13;5032165;28;20490;-65
2021/05/08 06:12:33;;;;;;;0.68;0.15;;;;;;;17.34;37.14;101700.91;5032318;28;20076;-65
2021/05/08 06:15:00;;;;;;;0.38;0.20;;;;;;;17.35;37.00;101692.00;5031709;28;20095;-65
2021/05/08 06:17:29;;;;;;;0.43;0.10;;;;;;;17.37;37.12;101693.59;5031702;28;20111;-64
2021/05/08 06:19:57;;;;;;;8.68;0.70;;;;;;;17.41;36.75;101695.06;5032017;28;20057;-63
2021/05/08 06:22:24;;;;;;;0.50;0.20;;;;;;;17.45;36.78;101701.00;5043998;28;20176;-71
2021/05/08 06:24:51;;;;;;;0.20;0.20;;;;;;;17.50;36.22;101708.66;5051888;28;20472;-65
2021/05/08 06:27:17;;;;;;;0.30;0.20;;;;;;;17.52;36.27;101707.59;5051489;28;20460;-65
2021/05/08 06:29:44;;;;;;;1.90;0.20;;;;;;;17.56;36.51;101701.09;5051628;28;20157;-62
2021/05/08 06:32:10;;;;;;;3.88;2.22;;;;;;;17.60;36.28;101705.22;5051416;28;20103;-62
2021/05/08 06:34:36;;;;;;;0.80;0.45;;;;;;;17.65;35.83;101709.34;5051789;28;20055;-64
2021/05/08 06:37:03;;;;;;;0.93;0.30;;;;;;;17.68;35.96;101706.50;5039244;28;20410;-64
2021/05/08 06:39:29;;;;;;;1.08;0.40;;;;;;;17.71;35.27;101707.13;5031561;28;20482;-67
2021/05/08 06:41:59;;;;;;;2.75;0.68;;;;;;;17.77;34.96;101713.78;5031422;28;20119;-67
2021/05/08 06:44:25;;;;;;;2.63;0.60;;;;;;;17.81;35.13;101699.31;5031611;28;20061;-64
2021/05/08 06:46:53;;;;;;;2.47;0.68;;;;;;;17.87;35.14;101700.69;5031523;28;20058;-66
2021/05/08 06:49:19;;;;;;;2.35;0.98;;;;;;;17.92;34.85;101701.22;5031401;28;20069;-65
2021/05/08 06:51:45;;;;;;;1.50;0.98;;;;;;;17.97;34.74;101704.41;5031390;28;20049;-65
2021/05/08 06:54:12;;;;;;;2.83;0.90;;;;;;;18.02;34.51;101704.09;5031167;28;20041;-65
2021/05/08 06:56:38;;;;;;;2.42;0.50;;;;;;;18.08;34.12;101704.47;5030989;28;20041;-65
2021/05/08 06:59:04;;;;;;;3.40;1.15;;;;;;;18.13;34.04;101711.25;5030994;28;20517;-64
2021/05/08 07:01:30;;;;;;;1.33;0.63;;;;;;;18.13;34.20;101705.94;5031238;28;20429;-67
2021/05/08 07:03:57;;;;;;;1.48;0.65;;;;;;;18.11;34.36;101706.06;5030100;28;20050;-65
2021/05/08 07:06:28;;;;;;;1.60;0.63;;;;;;;18.13;34.25;101709.44;5030798;28;20060;-65
2021/05/08 07:08:54;;;;;;;1.58;0.60;;;;;;;18.18;33.75;101709.09;5031156;28;20053;-66
2021/05/08 07:11:21;;;;;;;1.17;0.85;;;;;;;18.24;33.73;101721.94;5030983;28;20126;-64
2021/05/08 07:13:47;;;;;;;1.45;0.30;;;;;;;18.31;33.81;101715.22;5031087;28;20457;-66
2021/05/08 07:16:13;;;;;;;1.25;0.63;;;;;;;18.35;33.60;101721.16;5030878;28;20453;-65
2021/05/08 07:18:39;;;;;;;2.22;0.80;;;;;;;18.36;34.05;101736.13;5041159;28;20045;-64
2021/05/08 07:21:06;;;;;;;3.35;1.67;;;;;;;18.36;33.41;101731.66;5049739;28;20048;-65
2021/05/08 07:23:33;;;;;;;2.20;1.20;;;;;;;18.39;33.62;101739.41;5049065;28;20071;-64
2021/05/08 07:25:59;;;;;;;1.98;1.00;;;;;;;18.44;33.34;101744.38;5049984;28;20056;-63
2021/05/08 07:28:26;;;;;;;6.30;2.75;;;;;;;18.49;33.24;101736.09;5050002;28;20049;-62
2021/05/08 07:30:54;;;;;;;3.88;1.70;;;;;;;18.57;33.32;101741.66;5050342;28;20057;-62
2021/05/08 07:33:22;;;;;;;0.80;0.40;;;;;;;18.64;32.98;101739.38;5050212;28;20061;-69
2021/05/08 07:35:49;;;;;;;1.65;0.30;;;;;;;18.67;33.45;101736.50;5050394;28;20049;-63
2021/05/08 07:38:16;;;;;;;1.23;0.38;;;;;;;18.62;33.32;101738.66;5049992;28;20075;-63
2021/05/08 07:40:42;;;;;;;3.10;0.77;;;;;;;18.69;32.78;101742.53;5033727;28;20494;-63
2021/05/08 07:43:10;;;;;;;1.85;0.30;;;;;;;18.80;32.99;101750.56;5030186;28;20474;-64
2021/05/08 07:45:38;;;;;;;0.88;0.38;;;;;;;18.91;32.53;101753.28;5030165;28;20397;-63
2021/05/08 07:48:05;;;;;;;2.75;0.50;;;;;;;18.99;32.49;101754.53;5030088;28;20509;-62
2021/05/08 07:50:31;;;;;;;2.35;0.40;;;;;;;18.99;32.58;101755.34;5030419;28;20467;-63
2021/05/08 07:52:57;;;;;;;2.78;0.43;;;;;;;18.95;32.88;101751.25;5029933;28;20061;-63
2021/05/08 07:55:24;;;;;;;1.55;0.55;;;;;;;18.99;32.41;101752.69;5029887;28;20046;-63
2021/05/08 07:57:50;;;;;;;1.30;0.60;;;;;;;19.08;32.13;101760.00;5032314;28;20487;-63
2021/05/08 08:00:19;;;;;;;0.70;0.38;;;;;;;19.19;31.86;101759.16;5049391;28;20064;-62
2021/05/08 08:02:46;;;;;;;0.73;0.40;;;;;;;19.31;31.78;101748.53;5049401;28;20055;-64
2021/05/08 08:05:12;;;;;;;3.30;0.40;;;;;;;19.46;31.67;101754.47;5049314;28;20041;-62
2021/05/08 08:07:38;;;;;;;2.10;0.47;;;;;;;19.56;31.70;101748.28;5049612;28;20045;-62
2021/05/08 08:10:07;;;;;;;0.75;0.40;;;;;;;19.66;31.83;101758.22;5049406;28;20126;-64
2021/05/08 08:12:34;;;;;;;1.23;0.73;;;;;;;19.76;31.14;101761.84;5049393;28;20452;-63
2021/05/08 08:15:00;;;;;;;0.73;0.30;;;;;;;19.86;31.36;101765.50;5030049;28;20064;-63
2021/05/08 08:17:31;;;;;;;0.32;0.20;;;;;;;19.94;31.44;101764.06;5029497;28;20056;-63
2021/05/08 08:19:57;;;;;;;0.93;0.40;;;;;;;20.06;30.90;101763.03;5029510;28;20068;-63
2021/05/08 08:22:23;;;;;;;1.60;0.40;;;;;;;20.16;30.36;101757.81;5030807;28;20513;-63
2021/05/08 08:24:51;;;;;;;1.45;0.40;;;;;;;20.24;30.23;101766.06;5042922;28;20106;-64
2021/05/08 08:27:17;;;;;;;0.85;0.40;;;;;;;20.31;29.94;101761.88;5046142;28;20500;-65
2021/05/08 08:29:43;;;;;;;1.30;0.35;;;;;;;20.41;29.55;101767.31;5048724;28;20045;-63
2021/05/08 08:32:09;;;;;;;0.63;0.30;;;;;;;20.49;29.74;101770.22;5047852;28;20433;-65
2021/05/08 08:34:37;;;;;;;0.80;0.40;;;;;;;20.58;29.26;101762.41;5048313;28;20048;-62
2021/05/08 08:37:04;;;;;;;1.92;0.40;;;;;;;20.65;29.77;101759.09;5048134;28;20067;-63
2021/05/08 08:39:31;;;;;;;1.33;0.40;;;;;;;20.76;30.03;101773.38;5047175;28;20045;-63
2021/05/08 08:41:57;;;;;;;0.57;0.22;;;;;;;20.83;29.72;101770.06;5049045;28;20523;-63
2021/05/08 08:44:24;;;;;;;1.05;0.40;;;;;;;20.90;29.31;101773.09;5044640;28;20087;-65
2021/05/08 08:46:51;;;;;;;1.38;0.65;;;;;;;20.96;29.36;101782.38;5028721;28;20045;-65
2021/05/08 08:49:18;;;;;;;0.63;0.30;;;;;;;21.04;28.50;101772.75;5028974;28;20053;-65
2021/05/08 08:51:45;;;;;;;1.23;0.73;;;;;;;21.11;28.42;101774.91;5029265;28;20088;-63
2021/05/08 08:54:15;;;;;;;1.40;0.45;;;;;;;21.17;27.85;101785.91;5036135;28;20044;-65
2021/05/08 08:56:44;;;;;;;0.40;0.28;;;;;;;21.27;28.16;101782.44;5047673;28;20067;-64
2021/05/08 08:59:33;;;;;;;0.75;0.38;;;;;;;21.36;28.07;101774.50;5048773;28;20048;-64
2021/05/08 09:01:59;;;;;;;1.55;0.50;;;;;;;21.46;27.62;101773.72;5048433;28;20115;-61
2021/05/08 09:04:25;;;;;;;4.55;0.50;;;;;;;21.52;27.93;101773.16;5039570;28;20045;-62
2021/05/08 09:06:53;;;;;;;0.65;0.20;;;;;;;21.61;27.77;101780.41;5046328;28;20052;-65
2021/05/08 09:09:20;;;;;;;0.75;0.43;;;;;;;21.70;27.52;101781.44;5028470;28;20053;-62
2021/05/08 09:11:51;;;;;;;1.45;0.30;;;;;;;21.78;27.51;101772.75;5027139;28;20045;-62
2021/05/08 09:14:17;;;;;;;1.50;0.47;;;;;;;21.89;27.23;101774.44;5028525;28;20060;-64
2021/05/08 09:17:03;;;;;;;1.20;0.60;;;;;;;21.97;27.03;101774.63;5028536;28;20521;-65
2021/05/08 09:19:30;;;;;;;1.23;0.30;;;;;;;22.01;27.05;101770.69;5032067;28;20045;-64
2021/05/08 09:21:57;;;;;;;1.17;0.47;;;;;;;22.11;26.71;101768.88;5033546;28;20452;-63
2021/05/08 09:24:23;;;;;;;1.70;0.40;;;;;;;22.19;26.71;101773.53;5029288;28;20060;-63
2021/05/08 09:26:52;;;;;;;2.42;0.45;;;;;;;22.29;27.04;101774.41;5048985;28;20053;-63
2021/05/08 09:29:24;;;;;;;0.82;0.30;;;;;;;22.40;26.99;101781.50;5052187;28;20057;-62
2021/05/08 09:31:55;;;;;;;1.33;0.30;;;;;;;22.49;26.81;101777.13;5052612;28;20095;-64
2021/05/08 09:34:21;;;;;;;0.80;0.43;;;;;;;22.60;27.07;101774.31;5052120;28;20133;-63
2021/05/08 09:36:55;;;;;;;0.50;0.35;;;;;;;22.73;26.18;101775.84;5050235;28;20056;-63
2021/05/08 09:39:32;;;;;;;0.50;0.20;;;;;;;22.78;24.74;101770.94;5052576;28;20077;-62
2021/05/08 09:42:00;;;;;;;1.23;0.30;;;;;;;22.83;23.93;101763.34;5052088;28;20045;-67
2021/05/08 09:44:26;;;;;;;1.63;0.70;;;;;;;22.90;23.36;101760.91;5049562;28;20112;-64
2021/05/08 09:46:55;;;;;;;7.35;0.47;;;;;;;22.97;23.36;101752.16;5052391;28;20052;-68
2021/05/08 09:49:22;;;;;;;2.25;0.35;;;;;;;23.05;23.69;101762.16;5052192;28;20052;-62
2021/05/08 09:51:58;;;;;;;3.70;0.50;;;;;;;23.15;23.46;101752.28;5052264;28;20099;-59
2021/05/08 09:54:24;;;;;;;0.68;0.20;;;;;;;23.29;23.48;101748.31;5039916;28;20053;-63
2021/05/08 09:56:51;;;;;;;3.03;0.90;;;;;;;23.44;23.17;101750.53;5044458;28;20102;-60
2021/05/08 09:59:33;;;;;;;1.75;0.30;;;;;;;23.54;22.22;101747.78;5051863;28;20045;-60
2021/05/08 10:02:02;;;;;;;2.20;0.40;;;;;;;23.67;21.91;101740.25;5050787;28;20063;-60
2021/05/08 10:04:48;;;;;;;0.73;0.20;;;;;;;23.75;21.29;101760.94;5049521;28;20045;-60
2021/05/08 10:07:20;;;;;;;0.95;0.30;;;;;;;23.78;20.83;101745.41;5044353;28;20429;-66
2021/05/08 10:09:49;;;;;;;1.10;0.40;;;;;;;23.90;20.92;101740.69;5047426;28;20145;-59
2021/05/08 10:12:19;;;;;;;1.88;0.20;;;;;;;23.95;21.30;101743.78;5046371;28;20045;-59
2021/05/08 10:14:48;;;;;;;0.65;0.30;;;;;;;23.99;21.70;101748.88;5048830;28;20045;-62
2021/05/08 10:17:20;;;;;;;0.40;0.20;;;;;;;24.09;21.78;101752.31;5051562;28;20107;-61
2021/05/08 10:19:49;;;;;;;2.88;1.05;;;;;;;24.28;21.72;101746.81;5051391;28;20053;-61
2021/05/08 10:22:17;;;;;;;2.38;0.30;;;;;;;24.47;21.92;101753.03;5051535;28;20122;-63
2021/05/08 10:24:45;;;;;;;1.67;0.30;;;;;;;24.57;21.57;101744.88;5051922;28;20433;-70
2021/05/08 10:27:12;;;;;;;0.68;0.30;;;;;;;24.25;21.88;101746.25;5047245;28;20056;-62
2021/05/08 10:29:47;;;;;;;3.83;0.73;;;;;;;23.89;22.00;101751.56;5031891;28;20052;-61
2021/05/08 10:32:18;;;;;;;2.05;0.85;;;;;;;23.87;22.46;101754.41;5031954;28;20050;-61
2021/05/08 10:34:54;;;;;;;6.38;0.70;;;;;;;24.01;22.67;101758.44;5031712;28;20092;-62
2021/05/08 10:37:21;;;;;;;0.25;0.20;;;;;;;23.80;22.88;101761.34;5038919;28;20493;-62
2021/05/08 10:40:13;;;;;;;0.28;0.17;;;;;;;23.63;23.04;101768.34;5034861;28;20045;-60
2021/05/08 10:42:49;;;;;;;3.45;0.60;;;;;;;23.40;23.56;101763.38;5031305;28;20057;-60
2021/05/08 10:45:19;;;;;;;1.08;0.40;;;;;;;23.24;23.72;101755.09;5031134;28;20049;-61
2021/05/08 10:50:34;;;;;;;1.02;0.40;;;;;;;23.03;24.23;101757.94;5031068;28;20049;-61
2021/05/08 10:53:11;;;;;;;0.68;0.40;;;;;;;23.53;23.82;101763.03;5031347;28;20056;-60
2021/05/08 10:55:58;;;;;;;1.02;0.50;;;;;;;23.80;23.82;101748.78;5031173;28;20045;-61
2021/05/08 10:58:26;;;;;;;1.73;0.60;;;;;;;23.91;23.61;101745.09;5031086;28;20096;-62
2021/05/08 11:01:00;;;;;;;0.40;0.40;;;;;;;24.02;23.16;101740.50;5031353;28;20049;-60
2021/05/08 11:03:52;;;;;;;1.00;0.60;;;;;;;24.20;24.33;101735.16;5031049;28;20509;-61
2021/05/08 11:06:18;;;;;;;2.45;0.47;;;;;;;23.96;24.54;101728.56;5030737;28;20045;-63
2021/05/08 11:08:48;;;;;;;0.63;0.40;;;;;;;23.76;24.59;101734.00;5033382;28;20087;-61
2021/05/08 11:11:22;;;;;;;1.98;0.68;;;;;;;24.03;24.25;101728.78;5040464;28;20049;-62
2021/05/08 11:13:59;;;;;;;2.45;0.45;;;;;;;24.28;23.66;101724.53;5032547;28;20068;-61
2021/05/08 11:16:27;;;;;;;0.60;0.50;;;;;;;24.45;23.65;101718.31;5043576;28;20077;-63
2021/05/08 11:18:56;;;;;;;0.90;0.77;;;;;;;24.59;23.50;101718.72;5050494;28;20045;-61
2021/05/08 11:21:32;;;;;;;1.10;0.60;;;;;;;24.78;23.57;101723.97;5049756;28;20145;-62
2021/05/08 11:24:02;;;;;;;;;;;;;;;24.90;23.28;101721.00;5041571;28;20041;-62
2021/05/08 11:26:28;;;;;;;0.75;0.68;;;;;;;25.05;23.33;101714.06;5047597;28;19928;-62
2021/05/08 11:28:55;;;;;;;1.95;0.70;;;;;;;25.17;23.33;101716.47;5050029;28;20557;-62
2021/05/08 11:31:30;;;;;;;1.08;0.52;;;;;;;25.24;23.19;101718.38;5041187;28;20123;-62